sensor_id;sensor_type;location;lat;lon;timestamp;P1;P2;P0
76045;PMS7003;64741;41.730;44.788;2023-12-28T00:02:15;7.4;5.8;4.4
76045;PMS7003;64741;41.730;44.788;2023-12-28T00:07:09;6.2;5.2;4
76045;PMS7003;64741;41.730;44.788;2023-12-28T00:12:03;6;4.4;3.4
76045;PMS7003;64741;41.730;44.788;2023-12-28T00:17:17;6;5.2;3.8
76045;PMS7003;64741;41.730;44.788;2023-12-28T00:22:19;6;5;3.8
76045;PMS7003;64741;41.730;44.788;2023-12-28T00:26:59;4.4;4;3
76045;PMS7003;64741;41.730;44.788;2023-12-28T00:32:07;4.2;3.8;3.2
76045;PMS7003;64741;41.730;44.788;2023-12-28T00:37:21;5.2;3.6;3
76045;PMS7003;64741;41.730;44.788;2023-12-28T00:42:15;4.6;4.2;3.8
76045;PMS7003;64741;41.730;44.788;2023-12-28T00:46:53;5.2;4;3.4
76045;PMS7003;64741;41.730;44.788;2023-12-28T00:52:11;4.8;3.8;3
76045;PMS7003;64741;41.730;44.788;2023-12-28T00:57:15;4.8;3.8;2.8
76045;PMS7003;64741;41.730;44.788;2023-12-28T01:02:03;4.8;4.4;3.4
76045;PMS7003;64741;41.730;44.788;2023-12-28T01:07:17;3.8;3.4;2.6
76045;PMS7003;64741;41.730;44.788;2023-12-28T01:12:21;4.8;3.8;2.8
76045;PMS7003;64741;41.730;44.788;2023-12-28T01:17:17;4;3.8;2.8
76045;PMS7003;64741;41.730;44.788;2023-12-28T01:22:19;4.8;4;3.2
76045;PMS7003;64741;41.730;44.788;2023-12-28T01:27:07;3.8;3.4;2.2
76045;PMS7003;64741;41.730;44.788;2023-12-28T01:32:15;4.2;3.4;2.6
76045;PMS7003;64741;41.730;44.788;2023-12-28T01:37:17;4.4;3.4;2.8
76045;PMS7003;64741;41.730;44.788;2023-12-28T01:42:11;4.4;3.2;2.8
76045;PMS7003;64741;41.730;44.788;2023-12-28T01:47:15;4;3.2;2.4
76045;PMS7003;64741;41.730;44.788;2023-12-28T01:51:47;3.2;3.2;2.4
76045;PMS7003;64741;41.730;44.788;2023-12-28T01:57:21;3.2;2.8;2
76045;PMS7003;64741;41.730;44.788;2023-12-28T02:02:17;3.4;2.8;2.2
76045;PMS7003;64741;41.730;44.788;2023-12-28T02:07:19;3.2;2;1.4
76045;PMS7003;64741;41.730;44.788;2023-12-28T02:12:19;2.6;2.2;1.6
76045;PMS7003;64741;41.730;44.788;2023-12-28T02:17:10;2.4;2.4;2
76045;PMS7003;64741;41.730;44.788;2023-12-28T02:22:17;2.4;1.8;1.2
76045;PMS7003;64741;41.730;44.788;2023-12-28T02:27:13;3;2.2;1.6
76045;PMS7003;64741;41.730;44.788;2023-12-28T02:32:22;2;1.8;1.2
76045;PMS7003;64741;41.730;44.788;2023-12-28T02:37:17;2.2;1.8;1.6
76045;PMS7003;64741;41.730;44.788;2023-12-28T02:42:15;1.8;1.8;1.2
76045;PMS7003;64741;41.730;44.788;2023-12-28T02:47:07;2.8;1.4;0.8
76045;PMS7003;64741;41.730;44.788;2023-12-28T02:52:15;1.2;1.2;0.8
76045;PMS7003;64741;41.730;44.788;2023-12-28T02:57:15;2.8;1.5;1
76045;PMS7003;64741;41.730;44.788;2023-12-28T03:02:11;1.6;1.6;0.6
76045;PMS7003;64741;41.730;44.788;2023-12-28T03:07:19;1.8;1.6;1.2
76045;PMS7003;64741;41.730;44.788;2023-12-28T03:12:05;1.8;1.4;0.8
76045;PMS7003;64741;41.730;44.788;2023-12-28T03:17:19;2;1.4;1.2
76045;PMS7003;64741;41.730;44.788;2023-12-28T03:22:11;3;2.2;1.4
76045;PMS7003;64741;41.730;44.788;2023-12-28T03:27:09;1.8;1.6;0.8
76045;PMS7003;64741;41.730;44.788;2023-12-28T03:32:11;2.2;1.2;0.8
76045;PMS7003;64741;41.730;44.788;2023-12-28T03:36:57;2;1.2;1
76045;PMS7003;64741;41.730;44.788;2023-12-28T03:42:15;1.6;1.2;0.6
76045;PMS7003;64741;41.730;44.788;2023-12-28T03:47:15;2;1.4;1
76045;PMS7003;64741;41.730;44.788;2023-12-28T03:52:19;1.4;1;0.6
76045;PMS7003;64741;41.730;44.788;2023-12-28T03:57:07;1.4;1.2;0.8
76045;PMS7003;64741;41.730;44.788;2023-12-28T04:02:17;1.4;1;0.4
76045;PMS7003;64741;41.730;44.788;2023-12-28T04:07:21;1;0.8;0.2
76045;PMS7003;64741;41.730;44.788;2023-12-28T04:12:11;1;0.8;0.4
76045;PMS7003;64741;41.730;44.788;2023-12-28T04:16:49;0.8;0.8;0.2
76045;PMS7003;64741;41.730;44.788;2023-12-28T04:22:17;1.2;0.8;0.2
76045;PMS7003;64741;41.730;44.788;2023-12-28T04:26:39;0.4;0.4;0
76045;PMS7003;64741;41.730;44.788;2023-12-28T04:32:07;0.8;0.6;0.4
76045;PMS7003;64741;41.730;44.788;2023-12-28T04:37:13;0.4;0.4;0.2
76045;PMS7003;64741;41.730;44.788;2023-12-28T04:42:19;1.4;0.8;0.4
76045;PMS7003;64741;41.730;44.788;2023-12-28T04:47:19;0.6;0.6;0.6
76045;PMS7003;64741;41.730;44.788;2023-12-28T04:52:17;0.4;0.4;0.4
76045;PMS7003;64741;41.730;44.788;2023-12-28T04:57:11;1;0.8;0.4
76045;PMS7003;64741;41.730;44.788;2023-12-28T05:02:21;0.8;0.8;0.4
76045;PMS7003;64741;41.730;44.788;2023-12-28T05:07:01;1.8;1;0.8
76045;PMS7003;64741;41.730;44.788;2023-12-28T05:12:13;1.6;1.4;1
76045;PMS7003;64741;41.730;44.788;2023-12-28T05:17:11;1.2;1;0.4
76045;PMS7003;64741;41.730;44.788;2023-12-28T05:22:15;2.4;1.8;1
76045;PMS7003;64741;41.730;44.788;2023-12-28T05:27:21;1.4;1.2;0.4
76045;PMS7003;64741;41.730;44.788;2023-12-28T05:32:15;1.6;0.6;0.6
76045;PMS7003;64741;41.730;44.788;2023-12-28T05:37:17;2.2;0.8;0.8
76045;PMS7003;64741;41.730;44.788;2023-12-28T05:42:17;2;1.4;1.2
76045;PMS7003;64741;41.730;44.788;2023-12-28T05:47:19;1.2;1;0.6
76045;PMS7003;64741;41.730;44.788;2023-12-28T05:52:11;1.2;1;0.6
76045;PMS7003;64741;41.730;44.788;2023-12-28T05:57:15;1.6;1;0.8
76045;PMS7003;64741;41.730;44.788;2023-12-28T06:02:17;1;1;0.6
76045;PMS7003;64741;41.730;44.788;2023-12-28T06:07:09;1;0.6;0.6
76045;PMS7003;64741;41.730;44.788;2023-12-28T06:12:13;0.8;0.4;0
76045;PMS7003;64741;41.730;44.788;2023-12-28T06:17:17;6.4;5;3.8
76045;PMS7003;64741;41.730;44.788;2023-12-28T06:22:19;6.6;5.8;4.4
76045;PMS7003;64741;41.730;44.788;2023-12-28T06:27:17;6.6;5.4;4.4
76045;PMS7003;64741;41.730;44.788;2023-12-28T06:32:19;5.8;5.2;3.6
76045;PMS7003;64741;41.730;44.788;2023-12-28T06:37:19;7.4;6.2;4.4
76045;PMS7003;64741;41.730;44.788;2023-12-28T06:42:07;4.8;4.4;3.2
76045;PMS7003;64741;41.730;44.788;2023-12-28T06:47:15;3.8;3.8;3.8
76045;PMS7003;64741;41.730;44.788;2023-12-28T06:52:17;5.4;4;3.6
76045;PMS7003;64741;41.730;44.788;2023-12-28T06:57:19;3.8;3.4;2.8
76045;PMS7003;64741;41.730;44.788;2023-12-28T07:02:15;4;3.4;2.8
76045;PMS7003;64741;41.730;44.788;2023-12-28T07:07:15;3.6;2.8;1.8
76045;PMS7003;64741;41.730;44.788;2023-12-28T07:12:11;2.4;2.4;1.4
76045;PMS7003;64741;41.730;44.788;2023-12-28T07:17:17;2;1.6;1.2
76045;PMS7003;64741;41.730;44.788;2023-12-28T07:22:17;2.2;1.6;1
76045;PMS7003;64741;41.730;44.788;2023-12-28T07:27:09;2.4;1.8;1
76045;PMS7003;64741;41.730;44.788;2023-12-28T07:32:19;58;47.8;32
76045;PMS7003;64741;41.730;44.788;2023-12-28T07:37:17;103.6;89.6;56.6
76045;PMS7003;64741;41.730;44.788;2023-12-28T07:42:21;85.6;72;46.2
76045;PMS7003;64741;41.730;44.788;2023-12-28T07:47:09;78.8;65;43.2
76045;PMS7003;64741;41.730;44.788;2023-12-28T07:52:09;73.4;58.6;38.8
76045;PMS7003;64741;41.730;44.788;2023-12-28T07:56:45;70.6;54;35.6
76045;PMS7003;64741;41.730;44.788;2023-12-28T08:02:11;63;49.6;32.4
76045;PMS7003;64741;41.730;44.788;2023-12-28T08:07:17;63.3;48.8;32.3
76045;PMS7003;64741;41.730;44.788;2023-12-28T08:11:59;60;46.4;31
76045;PMS7003;64741;41.730;44.788;2023-12-28T08:17:19;56.2;43.8;28.8
76045;PMS7003;64741;41.730;44.788;2023-12-28T08:22:09;54.2;42.2;28.2
76045;PMS7003;64741;41.730;44.788;2023-12-28T08:27:16;49.4;39.6;26.2
76045;PMS7003;64741;41.730;44.788;2023-12-28T08:32:21;47;36.8;24.8
76045;PMS7003;64741;41.730;44.788;2023-12-28T08:37:11;38.8;32.8;22.4
76045;PMS7003;64741;41.730;44.788;2023-12-28T08:42:17;37.2;32.2;22.2
76045;PMS7003;64741;41.730;44.788;2023-12-28T08:47:15;34;30.4;20.8
76045;PMS7003;64741;41.730;44.788;2023-12-28T08:52:15;29;24.8;18
76045;PMS7003;64741;41.730;44.788;2023-12-28T08:57:11;29.4;25.2;17.6
76045;PMS7003;64741;41.730;44.788;2023-12-28T09:02:17;28;23.8;17
76045;PMS7003;64741;41.730;44.788;2023-12-28T09:07:19;25.6;20.4;14.4
76045;PMS7003;64741;41.730;44.788;2023-12-28T09:12:19;21.4;18.2;12.8
76045;PMS7003;64741;41.730;44.788;2023-12-28T09:17:13;20.4;17.4;12.4
76045;PMS7003;64741;41.730;44.788;2023-12-28T09:21:53;18;15.6;10.8
76045;PMS7003;64741;41.730;44.788;2023-12-28T09:27:17;16.4;13.4;9.8
76045;PMS7003;64741;41.730;44.788;2023-12-28T09:32:15;16.8;13.6;10.2
76045;PMS7003;64741;41.730;44.788;2023-12-28T09:37:13;15;12.8;9.6
76045;PMS7003;64741;41.730;44.788;2023-12-28T09:42:09;13.6;11;7.8
76045;PMS7003;64741;41.730;44.788;2023-12-28T09:47:15;13;10.8;7.8
76045;PMS7003;64741;41.730;44.788;2023-12-28T09:52:19;13;10.4;7.8
76045;PMS7003;64741;41.730;44.788;2023-12-28T09:57:13;11.4;8.8;6.2
76045;PMS7003;64741;41.730;44.788;2023-12-28T10:02:17;10;8;5.6
76045;PMS7003;64741;41.730;44.788;2023-12-28T10:07:15;8;6.6;5
76045;PMS7003;64741;41.730;44.788;2023-12-28T10:12:15;7.8;6.4;4.4
76045;PMS7003;64741;41.730;44.788;2023-12-28T10:17:07;7.8;6.8;5
76045;PMS7003;64741;41.730;44.788;2023-12-28T10:22:13;6.2;5.2;3.8
76045;PMS7003;64741;41.730;44.788;2023-12-28T10:27:15;7;4.6;3.4
76045;PMS7003;64741;41.730;44.788;2023-12-28T10:32:09;5.8;4.4;3.2
76045;PMS7003;64741;41.730;44.788;2023-12-28T10:37:11;5.8;4.8;3.6
76045;PMS7003;64741;41.730;44.788;2023-12-28T10:41:29;4.2;3.8;2.6
76045;PMS7003;64741;41.730;44.788;2023-12-28T10:47:17;6;4;2.6
76045;PMS7003;64741;41.730;44.788;2023-12-28T10:52:13;3.8;3.2;2
76045;PMS7003;64741;41.730;44.788;2023-12-28T10:57:21;3.4;2.8;2.2
76045;PMS7003;64741;41.730;44.788;2023-12-28T11:02:17;8.2;5.4;3.6
76045;PMS7003;64741;41.730;44.788;2023-12-28T11:07:10;9.2;8.4;6.4
76045;PMS7003;64741;41.730;44.788;2023-12-28T11:12:15;7.8;6.8;5.2
76045;PMS7003;64741;41.730;44.788;2023-12-28T11:17:13;7.8;5.8;4.6
76045;PMS7003;64741;41.730;44.788;2023-12-28T11:22:15;5.8;5.8;4.6
76045;PMS7003;64741;41.730;44.788;2023-12-28T11:26:37;5.4;4.8;4
76045;PMS7003;64741;41.730;44.788;2023-12-28T11:32:13;4.8;4.4;3.4
76045;PMS7003;64741;41.730;44.788;2023-12-28T11:37:19;36.8;30.8;21.8
76045;PMS7003;64741;41.730;44.788;2023-12-28T11:42:06;40.4;34;24.4
76045;PMS7003;64741;41.730;44.788;2023-12-28T11:47:16;35;30.6;22.2
76045;PMS7003;64741;41.730;44.788;2023-12-28T11:52:00;33.2;29.4;22
76045;PMS7003;64741;41.730;44.788;2023-12-28T11:57:17;30.8;27.8;21.2
76045;PMS7003;64741;41.730;44.788;2023-12-28T12:02:13;31.2;29;21.6
76045;PMS7003;64741;41.730;44.788;2023-12-28T12:07:15;29.8;26.4;20
76045;PMS7003;64741;41.730;44.788;2023-12-28T12:12:09;26;24;19.4
76045;PMS7003;64741;41.730;44.788;2023-12-28T12:17:07;25.2;22.4;16.8
76045;PMS7003;64741;41.730;44.788;2023-12-28T12:22:07;24.8;23.2;17.4
76045;PMS7003;64741;41.730;44.788;2023-12-28T12:26:55;20.8;19.4;16.4
76045;PMS7003;64741;41.730;44.788;2023-12-28T12:32:15;21.8;19.6;15
76045;PMS7003;64741;41.730;44.788;2023-12-28T12:37:13;19.2;17;12.4
76045;PMS7003;64741;41.730;44.788;2023-12-28T12:41:49;18.4;16.4;13
76045;PMS7003;64741;41.730;44.788;2023-12-28T12:47:07;15.6;14.2;12.2
76045;PMS7003;64741;41.730;44.788;2023-12-28T12:52:11;15.6;13.6;10.4
76045;PMS7003;64741;41.730;44.788;2023-12-28T12:57:15;14.6;13.2;11
76045;PMS7003;64741;41.730;44.788;2023-12-28T13:02:11;13;11.2;9.2
76045;PMS7003;64741;41.730;44.788;2023-12-28T13:07:11;12.2;10.8;9.2
76045;PMS7003;64741;41.730;44.788;2023-12-28T13:12:13;10.6;10;8.4
76045;PMS7003;64741;41.730;44.788;2023-12-28T13:17:13;9.3;8.5;6.5
76045;PMS7003;64741;41.730;44.788;2023-12-28T13:22:09;9.8;9;7.4
76045;PMS7003;64741;41.730;44.788;2023-12-28T13:27:11;19.8;18;14.6
76045;PMS7003;64741;41.730;44.788;2023-12-28T13:32:15;19.8;17;13.8
76045;PMS7003;64741;41.730;44.788;2023-12-28T13:37:17;13.8;13.6;10
76045;PMS7003;64741;41.730;44.788;2023-12-28T13:42:11;16.4;15.4;11.8
76045;PMS7003;64741;41.730;44.788;2023-12-28T13:47:07;68.8;54.4;36.6
76045;PMS7003;64741;41.730;44.788;2023-12-28T13:52:13;89.2;79.6;54.2
76045;PMS7003;64741;41.730;44.788;2023-12-28T13:57:11;83.2;73.2;49.4
76045;PMS7003;64741;41.730;44.788;2023-12-28T14:02:11;81.2;69.2;47.4
76045;PMS7003;64741;41.730;44.788;2023-12-28T14:07:09;76.6;62.6;42.2
76045;PMS7003;64741;41.730;44.788;2023-12-28T14:12:11;72.8;59.4;39.4
76045;PMS7003;64741;41.730;44.788;2023-12-28T14:17:13;70.8;54.6;37.2
76045;PMS7003;64741;41.730;44.788;2023-12-28T14:22:11;66.8;50.8;33.8
76045;PMS7003;64741;41.730;44.788;2023-12-28T14:27:15;65.4;51.6;34.6
76045;PMS7003;64741;41.730;44.788;2023-12-28T14:32:11;63.8;49;33
76045;PMS7003;64741;41.730;44.788;2023-12-28T14:57:09;54.7;43.7;29.3
76045;PMS7003;64741;41.730;44.788;2023-12-28T15:02:13;54.6;43.2;29.2
76045;PMS7003;64741;41.730;44.788;2023-12-28T15:07:13;52.6;42.2;28.6
76045;PMS7003;64741;41.730;44.788;2023-12-28T15:12:15;51.8;40.6;27.4
76045;PMS7003;64741;41.730;44.788;2023-12-28T15:17:13;49.4;38.6;26.6
76045;PMS7003;64741;41.730;44.788;2023-12-28T15:22:17;50.4;39.4;26.2
76045;PMS7003;64741;41.730;44.788;2023-12-28T15:27:17;44;34.8;24.2
76045;PMS7003;64741;41.730;44.788;2023-12-28T15:32:11;46;36;24.4
76045;PMS7003;64741;41.730;44.788;2023-12-28T15:37:15;43.2;35;24.4
76045;PMS7003;64741;41.730;44.788;2023-12-28T15:42:15;36.8;31.8;21.8
76045;PMS7003;64741;41.730;44.788;2023-12-28T15:47:17;34.6;31.6;21.8
76045;PMS7003;64741;41.730;44.788;2023-12-28T15:52:05;35;30;21
76045;PMS7003;64741;41.730;44.788;2023-12-28T15:56:29;33.8;28.2;19
76045;PMS7003;64741;41.730;44.788;2023-12-28T16:02:05;31.6;27;18
76045;PMS7003;64741;41.730;44.788;2023-12-28T16:07:19;32.4;25.8;18.8
76045;PMS7003;64741;41.730;44.788;2023-12-28T16:12:15;30.2;25.6;18.6
76045;PMS7003;64741;41.730;44.788;2023-12-28T16:17:15;24.8;22.2;15.6
76045;PMS7003;64741;41.730;44.788;2023-12-28T16:22:17;23.8;20.6;14.6
76045;PMS7003;64741;41.730;44.788;2023-12-28T16:27:15;23.6;20.4;15
76045;PMS7003;64741;41.730;44.788;2023-12-28T16:32:15;22;19.4;14.6
76045;PMS7003;64741;41.730;44.788;2023-12-28T16:37:09;20;17.8;13
76045;PMS7003;64741;41.730;44.788;2023-12-28T16:42:11;17.8;16.8;12.2
76045;PMS7003;64741;41.730;44.788;2023-12-28T16:47:07;17.6;16.4;11.8
76045;PMS7003;64741;41.730;44.788;2023-12-28T16:52:11;18.4;15;11.4
76045;PMS7003;64741;41.730;44.788;2023-12-28T16:57:15;16.2;14.4;10.6
76045;PMS7003;64741;41.730;44.788;2023-12-28T17:02:15;14.8;13.2;10
76045;PMS7003;64741;41.730;44.788;2023-12-28T17:07:19;16.8;13.6;10.6
76045;PMS7003;64741;41.730;44.788;2023-12-28T17:12:11;14.4;13.6;10.4
76045;PMS7003;64741;41.730;44.788;2023-12-28T17:17:03;14.8;12.4;9
76045;PMS7003;64741;41.730;44.788;2023-12-28T17:22:17;15.2;11.2;8.8
76045;PMS7003;64741;41.730;44.788;2023-12-28T17:27:10;12.4;10.2;8
76045;PMS7003;64741;41.730;44.788;2023-12-28T17:32:15;11.2;9.8;7.2
76045;PMS7003;64741;41.730;44.788;2023-12-28T17:37:15;11.4;10;7.4
76045;PMS7003;64741;41.730;44.788;2023-12-28T17:42:15;10.3;8.5;7
76045;PMS7003;64741;41.730;44.788;2023-12-28T17:47:13;11;9;6.8
76045;PMS7003;64741;41.730;44.788;2023-12-28T17:52:15;10.2;9;6.6
76045;PMS7003;64741;41.730;44.788;2023-12-28T17:56:59;10.2;8.2;5.8
76045;PMS7003;64741;41.730;44.788;2023-12-28T18:02:19;8.2;7.2;5
76045;PMS7003;64741;41.730;44.788;2023-12-28T18:07:15;8;7.8;5.8
76045;PMS7003;64741;41.730;44.788;2023-12-28T18:12:11;7.6;7;5.2
76045;PMS7003;64741;41.730;44.788;2023-12-28T18:17:07;6.6;5.6;3.8
76045;PMS7003;64741;41.730;44.788;2023-12-28T18:22:11;6.4;5.8;4.4
76045;PMS7003;64741;41.730;44.788;2023-12-28T18:27:13;6.2;4.4;3.4
76045;PMS7003;64741;41.730;44.788;2023-12-28T18:32:09;5.2;4.4;3.6
76045;PMS7003;64741;41.730;44.788;2023-12-28T18:37:15;6.6;5;3.6
76045;PMS7003;64741;41.730;44.788;2023-12-28T18:42:17;6.6;5.4;3.2
76045;PMS7003;64741;41.730;44.788;2023-12-28T18:47:03;5.6;4.4;3.2
76045;PMS7003;64741;41.730;44.788;2023-12-28T18:52:15;4.4;4.2;3
76045;PMS7003;64741;41.730;44.788;2023-12-28T18:57:11;6.4;4.6;3.4
76045;PMS7003;64741;41.730;44.788;2023-12-28T19:02:15;4;3.8;2.6
76045;PMS7003;64741;41.730;44.788;2023-12-28T19:07:09;4;3.2;2.8
76045;PMS7003;64741;41.730;44.788;2023-12-28T19:12:13;3;3;2
76045;PMS7003;64741;41.730;44.788;2023-12-28T19:17:11;3;3;2
76045;PMS7003;64741;41.730;44.788;2023-12-28T19:22:07;4;2.8;2
76045;PMS7003;64741;41.730;44.788;2023-12-28T19:27:13;3.2;2.8;1.8
76045;PMS7003;64741;41.730;44.788;2023-12-28T19:32:11;3;2.4;1.2
76045;PMS7003;64741;41.730;44.788;2023-12-28T19:37:17;2;2;1.6
76045;PMS7003;64741;41.730;44.788;2023-12-28T19:42:15;2.8;2.4;1.4
76045;PMS7003;64741;41.730;44.788;2023-12-28T19:47:15;2.2;2;1.4
76045;PMS7003;64741;41.730;44.788;2023-12-28T19:52:15;2.8;2.2;1.4
76045;PMS7003;64741;41.730;44.788;2023-12-28T19:57:07;5.2;4;2.6
76045;PMS7003;64741;41.730;44.788;2023-12-28T20:02:15;8;7.8;6.8
76045;PMS7003;64741;41.730;44.788;2023-12-28T20:07:13;9.4;7.8;6.4
76045;PMS7003;64741;41.730;44.788;2023-12-28T20:12:17;8.2;7.6;6.2
76045;PMS7003;64741;41.730;44.788;2023-12-28T20:17:15;8.2;6.8;5
76045;PMS7003;64741;41.730;44.788;2023-12-28T20:22:11;6.8;5.8;4.4
76045;PMS7003;64741;41.730;44.788;2023-12-28T20:27:15;6.8;5.6;4.4
76045;PMS7003;64741;41.730;44.788;2023-12-28T20:32:15;4.8;4.6;4
76045;PMS7003;64741;41.730;44.788;2023-12-28T20:37:13;4.8;4.2;3.4
76045;PMS7003;64741;41.730;44.788;2023-12-28T20:42:07;5.2;4.4;3.6
76045;PMS7003;64741;41.730;44.788;2023-12-28T20:47:15;4.4;3.6;3
76045;PMS7003;64741;41.730;44.788;2023-12-28T20:52:15;3.4;3.2;2.2
76045;PMS7003;64741;41.730;44.788;2023-12-28T20:57:13;4;2.8;2.2
76045;PMS7003;64741;41.730;44.788;2023-12-28T21:02:09;2.8;2.4;2
76045;PMS7003;64741;41.730;44.788;2023-12-28T21:07:10;2.8;2;1.4
76045;PMS7003;64741;41.730;44.788;2023-12-28T21:12:08;2.8;2;1.2
76045;PMS7003;64741;41.730;44.788;2023-12-28T21:17:07;3.2;2.2;1.6
76045;PMS7003;64741;41.730;44.788;2023-12-28T21:22:11;2.4;2;1.4
76045;PMS7003;64741;41.730;44.788;2023-12-28T21:27:13;3.2;2.2;1.2
76045;PMS7003;64741;41.730;44.788;2023-12-28T21:32:17;1.8;1.4;1
76045;PMS7003;64741;41.730;44.788;2023-12-28T21:36:57;2;1.4;1.2
76045;PMS7003;64741;41.730;44.788;2023-12-28T21:42:11;1.4;1.4;1
76045;PMS7003;64741;41.730;44.788;2023-12-28T21:47:15;1.8;1.2;0.6
76045;PMS7003;64741;41.730;44.788;2023-12-28T21:52:09;1.2;0.6;0.4
76045;PMS7003;64741;41.730;44.788;2023-12-28T21:57:03;2;0.8;0.6
76045;PMS7003;64741;41.730;44.788;2023-12-28T22:02:13;1.2;1.2;0.4
76045;PMS7003;64741;41.730;44.788;2023-12-28T22:07:13;1;0.4;0
76045;PMS7003;64741;41.730;44.788;2023-12-28T22:12:09;1.2;0.6;0.4
76045;PMS7003;64741;41.730;44.788;2023-12-28T22:17:09;0.8;0.8;0.6
76045;PMS7003;64741;41.730;44.788;2023-12-28T22:22:15;1.8;1;0.6
76045;PMS7003;64741;41.730;44.788;2023-12-28T22:27:15;1.2;0.8;0.6
76045;PMS7003;64741;41.730;44.788;2023-12-28T22:32:15;1.4;1;0.6
76045;PMS7003;64741;41.730;44.788;2023-12-28T22:37:09;1;0.8;0.4
76045;PMS7003;64741;41.730;44.788;2023-12-28T22:42:15;0.8;0.4;0
76045;PMS7003;64741;41.730;44.788;2023-12-28T22:47:15;0.4;0.2;0.2
76045;PMS7003;64741;41.730;44.788;2023-12-28T22:52:11;0.8;0.8;0.8
76045;PMS7003;64741;41.730;44.788;2023-12-28T22:57:07;0.4;0.2;0
76045;PMS7003;64741;41.730;44.788;2023-12-28T23:02:01;0;0;0
76045;PMS7003;64741;41.730;44.788;2023-12-28T23:07:17;0.4;0.2;0.2
76045;PMS7003;64741;41.730;44.788;2023-12-28T23:12:11;0.8;0.6;0
76045;PMS7003;64741;41.730;44.788;2023-12-28T23:17:17;0.2;0.2;0.2
76045;PMS7003;64741;41.730;44.788;2023-12-28T23:22:15;1.2;0.4;0.2
76045;PMS7003;64741;41.730;44.788;2023-12-28T23:27:19;0.2;0.2;0
76045;PMS7003;64741;41.730;44.788;2023-12-28T23:31:47;0.2;0.2;0
76045;PMS7003;64741;41.730;44.788;2023-12-28T23:37:15;0;0;0
76045;PMS7003;64741;41.730;44.788;2023-12-28T23:42:15;2;0.4;0.2
76045;PMS7003;64741;41.730;44.788;2023-12-28T23:47:11;0.4;0;0
76045;PMS7003;64741;41.730;44.788;2023-12-28T23:52:15;0.2;0.2;0
76045;PMS7003;64741;41.730;44.788;2023-12-28T23:57:15;0;0;0
